Time;durP1;ratioP1;P1;durP2;ratioP2;P2;SDS_P1;SDS_P2;PMS_P1;PMS_P2;Temp;Humidity;BMP_temperature;BMP_pressure;BME280_temperature;BME280_humidity;BME280_pressure;Samples;Min_cycle;Max_cycle;Signal;HPM_P1;HPM_P2
2022/11/04 00:01:04;;;;;;;8.03;3.83;;;;;;;;;;4978140;28;20458;-70
2022/11/04 00:03:34;;;;;;;7.50;5.00;;;;;;;;;;4978365;28;20461;-70
2022/11/04 00:06:01;;;;;;;8.33;3.40;;;;;;;;;;4979280;28;20904;-70
2022/11/04 00:08:28;;;;;;;6.40;2.80;;;;;;;;;;4994790;28;20558;-70
2022/11/04 00:13:43;;;;;;;5.00;3.27;;;;;;;;;;4996059;28;20542;-70
2022/11/04 00:18:55;;;;;;;5.63;3.20;;;;;;;;;;4998129;28;20473;-71
2022/11/04 00:29:41;;;;;;;5.03;3.33;;;;;;;;;;4997824;28;20478;-71
2022/11/04 00:34:53;;;;;;;5.13;3.27;;;;;;;;;;4997262;28;20439;-70
2022/11/04 00:37:20;;;;;;;8.10;3.80;;;;;;;;;;4997793;28;20852;-70
2022/11/04 00:39:47;;;;;;;9.20;3.53;;;;;;;;;;4997674;28;20482;-70
2022/11/04 00:42:15;;;;;;;8.17;3.67;;;;;;;;;;4997110;28;20864;-71
2022/11/04 00:44:42;;;;;;;8.87;4.07;;;;;;;;;;4997117;28;20468;-70
2022/11/04 00:47:09;;;;;;;5.87;3.10;;;;;;;;;;4997809;28;20499;-69
2022/11/04 00:49:36;;;;;;;4.13;3.10;;;;;;;;;;4997431;28;20494;-71
2022/11/04 00:52:03;;;;;;;8.10;4.43;;;;;;;;;;4992146;28;20458;-71
2022/11/04 00:54:30;;;;;;;6.03;2.87;;;;;;;;;;4986475;28;20456;-70
2022/11/04 00:57:00;;;;;;;8.93;5.87;;;;;;;;;;4997174;28;20449;-70
2022/11/04 00:59:28;;;;;;;9.57;3.70;;;;;;;;;;4996979;28;20503;-70
2022/11/04 01:01:56;;;;;;;14.97;3.53;;;;;;;;;;4981536;28;20518;-70
2022/11/04 01:04:23;;;;;;;9.57;4.60;;;;;;;;;;4977178;28;20476;-70
2022/11/04 01:06:50;;;;;;;6.33;3.87;;;;;;;;;;4977774;28;20543;-70
2022/11/04 01:09:17;;;;;;;6.87;4.07;;;;;;;;;;4977004;28;20493;-70
2022/11/04 01:11:44;;;;;;;7.40;4.13;;;;;;;;;;4977179;28;20463;-70
2022/11/04 01:14:11;;;;;;;11.53;3.70;;;;;;;;;;4977424;28;20463;-70
2022/11/04 01:16:42;;;;;;;7.40;3.90;;;;;;;;;;4977365;28;20496;-71
2022/11/04 01:19:09;;;;;;;7.20;3.97;;;;;;;;;;4977992;28;20461;-70
2022/11/04 01:21:36;;;;;;;6.90;4.07;;;;;;;;;;4994796;28;20460;-70
2022/11/04 01:24:04;;;;;;;8.03;4.17;;;;;;;;;;4996797;28;20895;-70
2022/11/04 01:26:31;;;;;;;8.47;3.97;;;;;;;;;;4997433;28;20935;-70
2022/11/04 01:29:04;;;;;;;7.10;2.93;;;;;;;;;;4996992;28;20483;-70
2022/11/04 01:31:31;;;;;;;8.17;3.73;;;;;;;;;;4996818;28;20539;-70
2022/11/04 01:33:59;;;;;;;6.93;3.50;;;;;;;;;;4997159;28;20487;-71
2022/11/04 01:36:36;;;;;;;6.40;3.80;;;;;;;;;;4996717;28;20475;-71
2022/11/04 01:39:03;;;;;;;12.70;3.10;;;;;;;;;;4996680;28;20871;-71
2022/11/04 01:41:30;;;;;;;8.33;4.00;;;;;;;;;;4996967;28;20460;-71
2022/11/04 01:43:58;;;;;;;3.83;2.90;;;;;;;;;;4996271;28;20736;-71
2022/11/04 01:46:31;;;;;;;5.07;4.00;;;;;;;;;;4996281;28;20554;-71
2022/11/04 01:49:01;;;;;;;5.80;4.30;;;;;;;;;;4983426;28;20481;-71
2022/11/04 01:51:30;;;;;;;5.83;3.80;;;;;;;;;;4977109;28;20527;-71
2022/11/04 01:53:57;;;;;;;6.97;4.50;;;;;;;;;;4977104;28;20448;-70
2022/11/04 01:56:26;;;;;;;5.63;4.00;;;;;;;;;;4979321;28;20446;-72
2022/11/04 01:58:56;;;;;;;8.20;4.40;;;;;;;;;;4996393;28;20452;-71
2022/11/04 02:01:22;;;;;;;11.80;4.60;;;;;;;;;;4996575;28;20453;-71
2022/11/04 02:03:52;;;;;;;8.60;4.03;;;;;;;;;;4996410;28;20856;-71
2022/11/04 02:06:20;;;;;;;10.30;4.77;;;;;;;;;;4996208;28;20526;-71
2022/11/04 02:08:48;;;;;;;5.50;4.10;;;;;;;;;;4996491;28;20462;-70
2022/11/04 02:13:56;;;;;;;6.33;3.90;;;;;;;;;;4995552;28;20451;-71
2022/11/04 02:16:31;;;;;;;7.33;4.80;;;;;;;;;;4998235;28;20444;-71
2022/11/04 02:19:00;;;;;;;10.17;4.90;;;;;;;;;;4981353;28;21033;-71
2022/11/04 02:21:42;;;;;;;8.03;4.00;;;;;;;;;;4979473;28;20885;-71
2022/11/04 02:24:21;;;;;;;11.90;4.67;;;;;;;;;;4980292;28;20464;-70
2022/11/04 02:27:05;;;;;;;9.70;4.17;;;;;;;;;;4980368;28;20534;-71
2022/11/04 02:29:38;;;;;;;7.10;4.67;;;;;;;;;;4980150;28;20922;-71
2022/11/04 02:32:10;;;;;;;9.87;5.27;;;;;;;;;;4980895;28;20472;-71
2022/11/04 02:34:40;;;;;;;9.97;4.63;;;;;;;;;;4990474;28;20825;-71
2022/11/04 02:37:13;;;;;;;9.50;5.17;;;;;;;;;;4979900;28;20471;-71
2022/11/04 02:39:48;;;;;;;9.20;4.10;;;;;;;;;;4979893;28;20542;-70
2022/11/04 02:42:18;;;;;;;7.13;4.10;;;;;;;;;;4980021;28;20503;-71
2022/11/04 02:44:49;;;;;;;7.00;4.37;;;;;;;;;;4979380;28;20727;-71
2022/11/04 02:47:17;;;;;;;8.90;5.17;;;;;;;;;;4979802;28;20465;-71
2022/11/04 02:49:48;;;;;;;8.50;5.30;;;;;;;;;;4979410;28;20535;-71
2022/11/04 02:52:16;;;;;;;10.17;5.10;;;;;;;;;;4998721;28;20552;-71
2022/11/04 02:54:47;;;;;;;9.53;6.40;;;;;;;;;;4999375;28;20460;-71
2022/11/04 02:57:15;;;;;;;11.30;6.07;;;;;;;;;;4999278;28;20478;-71
2022/11/04 02:59:45;;;;;;;8.00;5.10;;;;;;;;;;4998994;28;20478;-71
2022/11/04 03:02:14;;;;;;;7.10;4.80;;;;;;;;;;4999384;28;20460;-71
2022/11/04 03:04:43;;;;;;;9.60;5.70;;;;;;;;;;4999072;28;20863;-71
2022/11/04 03:07:11;;;;;;;11.13;5.57;;;;;;;;;;4997554;28;20448;-71
2022/11/04 03:09:39;;;;;;;10.30;6.47;;;;;;;;;;4997863;28;20492;-70
2022/11/04 03:12:09;;;;;;;15.70;6.00;;;;;;;;;;4979226;28;20463;-71
2022/11/04 03:14:38;;;;;;;9.53;5.67;;;;;;;;;;4979462;28;20834;-71
2022/11/04 03:17:06;;;;;;;8.00;5.63;;;;;;;;;;4983931;28;20452;-71
2022/11/04 03:19:37;;;;;;;9.00;5.60;;;;;;;;;;4998417;28;20486;-71
2022/11/04 03:22:05;;;;;;;12.13;6.50;;;;;;;;;;4998149;28;20460;-71
2022/11/04 03:24:32;;;;;;;12.63;5.83;;;;;;;;;;4998108;28;20893;-71
2022/11/04 03:27:01;;;;;;;12.40;5.93;;;;;;;;;;4998037;28;20452;-71
2022/11/04 03:29:29;;;;;;;13.03;6.47;;;;;;;;;;4998370;28;20528;-71
2022/11/04 03:32:02;;;;;;;11.87;6.23;;;;;;;;;;4998650;28;20452;-71
2022/11/04 03:34:30;;;;;;;6.80;5.03;;;;;;;;;;4989279;28;21012;-71
2022/11/04 03:36:58;;;;;;;7.33;5.00;;;;;;;;;;4978958;28;20487;-72
2022/11/04 03:39:25;;;;;;;9.00;5.50;;;;;;;;;;4978591;28;21372;-72
2022/11/04 03:41:54;;;;;;;8.80;6.30;;;;;;;;;;4979096;28;20461;-72
2022/11/04 03:44:21;;;;;;;8.23;5.10;;;;;;;;;;4979003;28;20460;-72
2022/11/04 03:46:48;;;;;;;7.30;5.10;;;;;;;;;;4978990;28;20560;-72
2022/11/04 03:49:15;;;;;;;11.37;5.30;;;;;;;;;;4978919;28;20485;-72
2022/11/04 03:51:43;;;;;;;9.03;5.47;;;;;;;;;;4978878;28;20464;-72
2022/11/04 03:54:11;;;;;;;8.67;5.47;;;;;;;;;;4978412;28;20457;-72
2022/11/04 03:56:57;;;;;;;10.80;5.90;;;;;;;;;;4977658;28;20465;-72
2022/11/04 03:59:36;;;;;;;8.90;4.63;;;;;;;;;;4978541;28;20513;-72
2022/11/04 04:02:06;;;;;;;7.60;4.83;;;;;;;;;;4979013;28;20496;-72
2022/11/04 04:04:34;;;;;;;7.47;4.43;;;;;;;;;;4978871;28;20713;-72
2022/11/04 04:07:04;;;;;;;12.63;5.20;;;;;;;;;;4978599;28;20810;-72
2022/11/04 04:09:35;;;;;;;8.83;5.20;;;;;;;;;;4977929;28;20495;-72
2022/11/04 04:12:08;;;;;;;7.17;4.77;;;;;;;;;;4977612;28;20526;-72
2022/11/04 04:14:39;;;;;;;8.43;5.30;;;;;;;;;;4978049;28;20457;-72
2022/11/04 04:17:09;;;;;;;6.23;4.43;;;;;;;;;;4978487;28;20499;-72
2022/11/04 04:19:36;;;;;;;7.70;3.97;;;;;;;;;;4977970;28;20492;-72
2022/11/04 04:22:07;;;;;;;8.27;4.97;;;;;;;;;;4978611;28;20488;-72
2022/11/04 04:27:32;;;;;;;7.60;4.63;;;;;;;;;;4977942;28;20464;-72
2022/11/04 04:30:00;;;;;;;7.23;4.20;;;;;;;;;;4994917;28;20518;-71
2022/11/04 04:32:29;;;;;;;8.83;5.00;;;;;;;;;;4997249;28;20521;-71
2022/11/04 04:35:40;;;;;;;7.80;4.10;;;;;;;;;;4997179;28;20567;-72
2022/11/04 04:37:44;;;;;;;6.60;4.03;;;;;;;;;;4996586;28;20561;-72
2022/11/04 04:45:48;;;;;;;7.27;3.67;;;;;;;;;;4977488;28;20491;-72
2022/11/04 04:48:16;;;;;;;7.60;4.47;;;;;;;;;;4978135;28;20493;-72
2022/11/04 04:50:45;;;;;;;7.87;4.50;;;;;;;;;;4977349;28;20540;-71
2022/11/04 04:53:15;;;;;;;5.97;3.70;;;;;;;;;;4977940;28;20467;-71
2022/11/04 04:55:43;;;;;;;6.10;4.17;;;;;;;;;;4977906;28;20548;-71
2022/11/04 04:58:10;;;;;;;8.17;4.60;;;;;;;;;;4983254;28;20481;-71
2022/11/04 05:00:37;;;;;;;7.17;4.40;;;;;;;;;;4996612;28;20535;-71
2022/11/04 05:03:07;;;;;;;9.27;3.77;;;;;;;;;;4977884;28;20453;-71
2022/11/04 05:05:34;;;;;;;5.33;3.60;;;;;;;;;;4976546;28;20459;-72
2022/11/04 05:08:05;;;;;;;6.10;4.00;;;;;;;;;;4977420;28;20465;-71
2022/11/04 05:10:32;;;;;;;3.27;2.70;;;;;;;;;;4977413;28;20534;-71
2022/11/04 05:15:45;;;;;;;5.40;3.63;;;;;;;;;;4976966;28;20443;-72
2022/11/04 05:18:12;;;;;;;6.40;3.63;;;;;;;;;;4977709;28;20468;-71
2022/11/04 05:20:39;;;;;;;7.00;4.00;;;;;;;;;;4976724;28;20449;-72
2022/11/04 05:23:06;;;;;;;6.00;2.80;;;;;;;;;;4976180;28;20531;-71
2022/11/04 05:25:33;;;;;;;3.90;2.90;;;;;;;;;;4976138;28;20445;-71
2022/11/04 05:28:02;;;;;;;4.40;3.20;;;;;;;;;;4976579;28;20491;-72
2022/11/04 05:30:29;;;;;;;6.73;3.87;;;;;;;;;;4995108;28;21159;-72
2022/11/04 05:32:56;;;;;;;7.17;4.50;;;;;;;;;;4996045;28;20558;-71
2022/11/04 05:35:23;;;;;;;6.37;3.87;;;;;;;;;;4992732;28;21111;-72
2022/11/04 05:37:51;;;;;;;8.93;3.27;;;;;;;;;;4984681;28;20548;-72
2022/11/04 05:40:23;;;;;;;4.17;2.43;;;;;;;;;;4996271;28;20460;-72
2022/11/04 05:42:50;;;;;;;4.70;2.70;;;;;;;;;;4977400;28;21055;-72
2022/11/04 05:45:31;;;;;;;4.30;2.90;;;;;;;;;;4976753;28;20460;-73
2022/11/04 05:47:58;;;;;;;4.07;3.20;;;;;;;;;;4992658;28;20525;-72
2022/11/04 05:50:29;;;;;;;5.67;3.20;;;;;;;;;;4995398;28;20494;-72
2022/11/04 05:52:57;;;;;;;3.07;2.53;;;;;;;;;;4998527;28;20551;-72
2022/11/04 05:55:25;;;;;;;5.73;2.93;;;;;;;;;;4996256;28;20766;-72
2022/11/04 05:57:52;;;;;;;3.43;2.53;;;;;;;;;;4985387;28;20460;-72
2022/11/04 06:00:19;;;;;;;4.13;2.90;;;;;;;;;;4998421;28;20860;-70
2022/11/04 06:02:48;;;;;;;4.27;2.60;;;;;;;;;;4980206;28;20461;-71
2022/11/04 06:05:15;;;;;;;3.90;2.33;;;;;;;;;;4962541;28;20449;-71
2022/11/04 06:07:42;;;;;;;3.60;2.50;;;;;;;;;;4979360;28;20560;-71
2022/11/04 06:10:09;;;;;;;4.40;2.90;;;;;;;;;;4979101;28;20791;-71
2022/11/04 06:12:36;;;;;;;6.03;3.47;;;;;;;;;;4979020;28;20457;-71
2022/11/04 06:15:04;;;;;;;4.00;3.20;;;;;;;;;;4978596;28;20463;-71
2022/11/04 06:17:33;;;;;;;10.77;4.53;;;;;;;;;;4978863;28;20465;-71
2022/11/04 06:20:01;;;;;;;3.70;2.93;;;;;;;;;;5008026;28;20463;-71
2022/11/04 06:22:28;;;;;;;4.07;2.73;;;;;;;;;;5000707;28;20460;-71
2022/11/04 06:24:55;;;;;;;8.57;4.97;;;;;;;;;;4987260;28;20448;-71
2022/11/04 06:27:22;;;;;;;4.47;2.70;;;;;;;;;;4997496;28;20522;-71
2022/11/04 06:29:49;;;;;;;3.40;2.40;;;;;;;;;;4995418;28;20483;-71
2022/11/04 06:32:17;;;;;;;4.90;3.03;;;;;;;;;;4996399;28;20552;-71
2022/11/04 06:34:44;;;;;;;5.17;3.23;;;;;;;;;;4997748;28;20463;-71
2022/11/04 06:37:22;;;;;;;7.40;3.50;;;;;;;;;;4996707;28;20949;-71
2022/11/04 06:39:52;;;;;;;4.30;3.07;;;;;;;;;;4996168;28;20490;-71
2022/11/04 06:42:25;;;;;;;5.37;2.83;;;;;;;;;;4983841;28;20472;-71
2022/11/04 06:44:58;;;;;;;3.80;2.60;;;;;;;;;;4993485;28;20550;-72
2022/11/04 06:47:30;;;;;;;3.97;2.70;;;;;;;;;;4995970;28;20475;-72
2022/11/04 06:49:57;;;;;;;4.37;2.30;;;;;;;;;;4996203;28;20970;-72
2022/11/04 06:52:26;;;;;;;4.67;3.03;;;;;;;;;;4988383;28;21165;-70
2022/11/04 06:54:53;;;;;;;4.13;2.60;;;;;;;;;;4981012;28;20473;-71
2022/11/04 06:57:29;;;;;;;6.70;4.07;;;;;;;;;;4976417;28;20544;-70
2022/11/04 07:00:03;;;;;;;5.40;3.57;;;;;;;;;;4976779;28;20468;-71
2022/11/04 07:02:33;;;;;;;3.80;2.90;;;;;;;;;;4975650;28;20463;-71
2022/11/04 07:05:00;;;;;;;4.80;3.23;;;;;;;;;;4976851;28;20896;-71
2022/11/04 07:07:33;;;;;;;5.17;2.60;;;;;;;;;;4980852;28;20996;-71
2022/11/04 07:10:00;;;;;;;4.10;2.70;;;;;;;;;;4979935;28;20585;-70
2022/11/04 07:15:15;;;;;;;4.50;3.27;;;;;;;;;;4992050;28;20456;-72
2022/11/04 07:17:43;;;;;;;4.27;2.77;;;;;;;;;;4979762;28;20444;-71
2022/11/04 07:20:12;;;;;;;4.63;3.13;;;;;;;;;;4981680;28;20468;-71
2022/11/04 07:22:41;;;;;;;4.73;3.07;;;;;;;;;;4980573;28;20477;-71
2022/11/04 07:25:09;;;;;;;3.50;2.70;;;;;;;;;;4982284;28;20493;-72
2022/11/04 07:27:38;;;;;;;4.40;2.90;;;;;;;;;;4995495;28;20595;-71
2022/11/04 07:30:05;;;;;;;4.83;2.90;;;;;;;;;;4995878;28;20546;-70
2022/11/04 07:32:33;;;;;;;2.83;2.53;;;;;;;;;;4992655;28;20899;-72
2022/11/04 07:35:01;;;;;;;4.60;2.70;;;;;;;;;;4992291;28;20953;-71
2022/11/04 07:37:30;;;;;;;3.30;3.00;;;;;;;;;;4987298;28;20460;-71
2022/11/04 07:40:11;;;;;;;5.20;3.60;;;;;;;;;;4995382;28;20460;-71
2022/11/04 07:42:48;;;;;;;4.53;3.33;;;;;;;;;;4993443;28;20558;-71
2022/11/04 07:45:16;;;;;;;5.27;2.93;;;;;;;;;;4994469;28;20463;-71
2022/11/04 07:47:43;;;;;;;3.73;3.30;;;;;;;;;;4979131;28;22024;-70
2022/11/04 07:50:16;;;;;;;3.87;3.40;;;;;;;;;;4990363;28;20494;-70
2022/11/04 07:52:44;;;;;;;4.40;3.37;;;;;;;;;;4984506;28;20758;-71
2022/11/04 07:55:12;;;;;;;3.87;2.97;;;;;;;;;;4987619;28;20500;-71
2022/11/04 07:57:40;;;;;;;4.00;2.83;;;;;;;;;;4976203;28;20518;-70
2022/11/04 08:00:19;;;;;;;4.50;3.33;;;;;;;;;;4977860;28;20458;-71
2022/11/04 08:02:56;;;;;;;4.60;3.13;;;;;;;;;;4989549;28;20459;-71
2022/11/04 08:05:30;;;;;;;4.70;3.77;;;;;;;;;;4980022;28;20498;-71
2022/11/04 08:08:02;;;;;;;6.00;3.23;;;;;;;;;;4979465;28;20727;-71
2022/11/04 08:10:34;;;;;;;4.23;2.60;;;;;;;;;;4975043;28;20583;-70
2022/11/04 08:13:25;;;;;;;3.63;3.07;;;;;;;;;;4992677;28;20476;-71
2022/11/04 08:15:56;;;;;;;4.10;3.13;;;;;;;;;;4995021;28;20472;-71
2022/11/04 08:18:34;;;;;;;4.33;2.97;;;;;;;;;;4988583;28;20527;-70
2022/11/04 08:21:04;;;;;;;11.60;3.40;;;;;;;;;;4995270;28;20745;-70
2022/11/04 08:23:31;;;;;;;4.27;2.67;;;;;;;;;;4988630;28;20465;-70
2022/11/04 08:26:01;;;;;;;3.63;3.00;;;;;;;;;;4985508;28;20445;-71
2022/11/04 08:28:29;;;;;;;4.80;2.97;;;;;;;;;;4980371;28;20466;-69
2022/11/04 08:31:00;;;;;;;3.47;2.70;;;;;;;;;;4986471;28;20488;-69
2022/11/04 08:33:33;;;;;;;3.40;2.70;;;;;;;;;;4974772;28;20548;-69
2022/11/04 08:36:10;;;;;;;6.27;3.13;;;;;;;;;;4989725;28;20456;-70
2022/11/04 08:38:38;;;;;;;4.70;3.40;;;;;;;;;;4984343;28;20523;-69
2022/11/04 08:41:08;;;;;;;5.70;3.10;;;;;;;;;;4989235;28;20464;-70
2022/11/04 08:43:35;;;;;;;4.40;3.70;;;;;;;;;;4987494;28;20527;-70
2022/11/04 08:46:04;;;;;;;3.63;2.90;;;;;;;;;;4989889;28;20555;-69
2022/11/04 08:48:39;;;;;;;3.70;3.00;;;;;;;;;;4987837;28;20883;-71
2022/11/04 08:51:24;;;;;;;5.03;2.60;;;;;;;;;;4992121;28;20491;-70
2022/11/04 08:53:55;;;;;;;3.93;3.10;;;;;;;;;;4976699;28;20453;-71
2022/11/04 08:56:25;;;;;;;2.97;1.97;;;;;;;;;;4974720;28;20464;-71
2022/11/04 08:58:53;;;;;;;4.67;2.50;;;;;;;;;;4974581;28;20444;-69
2022/11/04 09:01:21;;;;;;;3.63;2.47;;;;;;;;;;4977461;28;20520;-70
2022/11/04 09:03:49;;;;;;;5.20;3.10;;;;;;;;;;4978379;28;20527;-70
2022/11/04 09:06:25;;;;;;;3.93;2.40;;;;;;;;;;4991665;28;20732;-70
2022/11/04 09:08:57;;;;;;;2.87;2.40;;;;;;;;;;4980522;28;20472;-70
2022/11/04 09:11:34;;;;;;;5.10;3.27;;;;;;;;;;4990285;28;20770;-69
2022/11/04 09:14:08;;;;;;;5.20;3.10;;;;;;;;;;4974932;28;20979;-70
2022/11/04 09:16:38;;;;;;;4.20;2.60;;;;;;;;;;5005375;28;20459;-70
2022/11/04 09:22:19;;;;;;;2.90;2.60;;;;;;;;;;4974352;28;20967;-70
2022/11/04 09:25:03;;;;;;;4.03;2.07;;;;;;;;;;4985920;28;20487;-69
2022/11/04 09:27:47;;;;;;;3.93;2.90;;;;;;;;;;4993882;28;20455;-70
2022/11/04 09:30:36;;;;;;;5.20;2.93;;;;;;;;;;4993861;28;20492;-68
2022/11/04 09:33:15;;;;;;;3.93;2.93;;;;;;;;;;4973208;28;20461;-68
2022/11/04 09:36:04;;;;;;;3.47;2.60;;;;;;;;;;4973362;28;20472;-69
2022/11/04 09:38:32;;;;;;;4.17;2.53;;;;;;;;;;4974830;28;20480;-70
2022/11/04 09:41:01;;;;;;;3.60;2.50;;;;;;;;;;4983600;28;20515;-70
2022/11/04 09:43:47;;;;;;;3.33;2.77;;;;;;;;;;4990068;28;20936;-69
2022/11/04 09:46:15;;;;;;;3.53;2.27;;;;;;;;;;4984490;28;20524;-69
2022/11/04 09:48:46;;;;;;;4.03;2.13;;;;;;;;;;4987727;28;20738;-70
2022/11/04 09:51:36;;;;;;;4.10;2.30;;;;;;;;;;4989378;28;20495;-69
2022/11/04 09:54:22;;;;;;;2.87;2.00;;;;;;;;;;4985014;28;20460;-69
2022/11/04 09:56:50;;;;;;;4.13;3.10;;;;;;;;;;4991463;28;20448;-69
2022/11/04 09:59:21;;;;;;;3.93;2.80;;;;;;;;;;4992353;28;20820;-68
2022/11/04 10:01:54;;;;;;;4.43;2.30;;;;;;;;;;4982305;28;20485;-70
2022/11/04 10:04:27;;;;;;;3.57;2.60;;;;;;;;;;4974863;28;20932;-68
2022/11/04 10:07:05;;;;;;;2.90;2.37;;;;;;;;;;4974562;28;20824;-68
2022/11/04 10:09:40;;;;;;;4.47;2.63;;;;;;;;;;4974442;28;20548;-69
2022/11/04 10:12:15;;;;;;;4.33;3.63;;;;;;;;;;4975123;28;20599;-70
2022/11/04 10:15:12;;;;;;;4.83;3.10;;;;;;;;;;4979052;28;20473;-68
2022/11/04 10:17:55;;;;;;;3.93;2.80;;;;;;;;;;4941820;28;20465;-71
2022/11/04 10:20:32;;;;;;;3.20;2.53;;;;;;;;;;4982148;28;20456;-71
2022/11/04 10:23:02;;;;;;;3.50;2.80;;;;;;;;;;4994125;28;20463;-70
2022/11/04 10:25:32;;;;;;;4.83;2.93;;;;;;;;;;4994339;28;20460;-71
2022/11/04 10:28:00;;;;;;;5.03;3.37;;;;;;;;;;4992514;28;20452;-70
2022/11/04 10:30:30;;;;;;;4.80;3.40;;;;;;;;;;4973673;28;20547;-70
2022/11/04 10:33:04;;;;;;;5.37;3.40;;;;;;;;;;4974819;28;20464;-70
2022/11/04 10:35:35;;;;;;;4.80;3.17;;;;;;;;;;4982128;28;20449;-69
2022/11/04 10:38:12;;;;;;;3.90;3.03;;;;;;;;;;4996419;28;21149;-69
2022/11/04 10:40:42;;;;;;;5.80;2.83;;;;;;;;;;4981841;28;20773;-69
2022/11/04 10:43:17;;;;;;;4.00;2.77;;;;;;;;;;4980757;28;20467;-70
2022/11/04 10:45:49;;;;;;;5.90;3.20;;;;;;;;;;4991083;28;20558;-70
2022/11/04 10:48:19;;;;;;;4.13;3.03;;;;;;;;;;4980855;28;20547;-70
2022/11/04 10:50:51;;;;;;;3.77;2.80;;;;;;;;;;4980138;28;20787;-70
2022/11/04 10:53:19;;;;;;;4.30;3.20;;;;;;;;;;4982047;28;20471;-70
2022/11/04 10:55:51;;;;;;;4.70;3.37;;;;;;;;;;4989934;28;20476;-69
2022/11/04 10:58:21;;;;;;;3.70;2.90;;;;;;;;;;4987412;28;20463;-69
2022/11/04 11:00:54;;;;;;;6.50;3.93;;;;;;;;;;4979072;28;20473;-70
2022/11/04 11:03:27;;;;;;;7.03;4.13;;;;;;;;;;4977075;28;20456;-69
2022/11/04 11:06:18;;;;;;;4.43;3.10;;;;;;;;;;4992447;28;20467;-70
2022/11/04 11:08:47;;;;;;;4.87;2.80;;;;;;;;;;4982827;28;20461;-70
2022/11/04 11:11:17;;;;;;;4.67;3.53;;;;;;;;;;4978008;28;20780;-69
2022/11/04 11:13:46;;;;;;;3.43;2.37;;;;;;;;;;4994783;28;20468;-71
2022/11/04 11:16:18;;;;;;;4.17;2.80;;;;;;;;;;4982372;28;20441;-71
2022/11/04 11:19:10;;;;;;;5.17;2.50;;;;;;;;;;4985911;28;20451;-70
2022/11/04 11:21:43;;;;;;;5.70;2.40;;;;;;;;;;4991083;28;21021;-69
2022/11/04 11:24:15;;;;;;;4.77;2.93;;;;;;;;;;4993686;28;20475;-70
2022/11/04 11:26:47;;;;;;;4.23;2.40;;;;;;;;;;4982958;28;20472;-70
2022/11/04 11:29:20;;;;;;;3.57;2.20;;;;;;;;;;4976935;28;20556;-69
2022/11/04 11:31:48;;;;;;;3.90;1.93;;;;;;;;;;4978750;28;20739;-70
2022/11/04 11:34:16;;;;;;;3.63;2.30;;;;;;;;;;4975955;28;20464;-70
2022/11/04 11:36:46;;;;;;;4.07;2.77;;;;;;;;;;4974980;28;20754;-70
2022/11/04 11:39:20;;;;;;;4.20;2.30;;;;;;;;;;4992216;28;20464;-68
2022/11/04 11:41:56;;;;;;;3.80;2.07;;;;;;;;;;4995976;28;20460;-68
2022/11/04 11:44:30;;;;;;;3.63;2.30;;;;;;;;;;4995486;28;20539;-70
2022/11/04 11:47:00;;;;;;;3.83;2.30;;;;;;;;;;4993903;28;20530;-69
2022/11/04 11:49:29;;;;;;;3.37;2.33;;;;;;;;;;4993881;28;20534;-70
2022/11/04 11:51:56;;;;;;;3.40;2.20;;;;;;;;;;4986406;28;21041;-70
2022/11/04 11:54:32;;;;;;;3.13;1.90;;;;;;;;;;4976340;28;20449;-70
2022/11/04 11:57:02;;;;;;;2.53;1.90;;;;;;;;;;4977418;28;20483;-70
2022/11/04 11:59:34;;;;;;;4.00;1.87;;;;;;;;;;4988045;28;20464;-69
2022/11/04 12:02:09;;;;;;;3.10;1.67;;;;;;;;;;4992346;28;20483;-69
2022/11/04 12:04:43;;;;;;;2.63;1.70;;;;;;;;;;4984327;28;20476;-70
2022/11/04 12:07:26;;;;;;;4.50;3.47;;;;;;;;;;4990909;28;20455;-71
2022/11/04 12:09:58;;;;;;;3.20;2.47;;;;;;;;;;4979696;28;20481;-69
2022/11/04 12:12:39;;;;;;;4.57;2.50;;;;;;;;;;4975756;28;20457;-69
2022/11/04 12:15:11;;;;;;;2.83;1.70;;;;;;;;;;4981038;28;20456;-69
2022/11/04 12:17:51;;;;;;;3.30;1.93;;;;;;;;;;4993300;28;20706;-69
2022/11/04 12:20:36;;;;;;;3.30;2.30;;;;;;;;;;4989505;28;20464;-68
2022/11/04 12:23:09;;;;;;;5.40;3.10;;;;;;;;;;4985604;28;20472;-69
2022/11/04 12:25:48;;;;;;;4.10;2.80;;;;;;;;;;4988349;28;20529;-69
2022/11/04 12:28:23;;;;;;;4.50;2.10;;;;;;;;;;4984448;28;20463;-69
2022/11/04 12:30:55;;;;;;;4.00;2.03;;;;;;;;;;4978352;28;20480;-70
2022/11/04 12:33:33;;;;;;;2.80;1.73;;;;;;;;;;4985949;28;20460;-69
2022/11/04 12:36:06;;;;;;;5.00;2.20;;;;;;;;;;4984504;28;20600;-69
2022/11/04 12:38:48;;;;;;;4.00;1.50;;;;;;;;;;4975491;28;20459;-68
2022/11/04 12:41:20;;;;;;;2.30;1.50;;;;;;;;;;4981233;28;20456;-68
2022/11/04 12:43:53;;;;;;;3.80;1.87;;;;;;;;;;4986957;28;20491;-71
2022/11/04 12:46:29;;;;;;;5.03;2.03;;;;;;;;;;4980354;28;20575;-72
2022/11/04 12:49:09;;;;;;;2.40;1.70;;;;;;;;;;4975946;28;20464;-72
2022/11/04 12:51:45;;;;;;;3.03;1.70;;;;;;;;;;4982194;28;20477;-71
2022/11/04 12:54:22;;;;;;;3.17;1.50;;;;;;;;;;4984715;28;20799;-70
2022/11/04 12:56:53;;;;;;;3.70;2.10;;;;;;;;;;4976678;28;20460;-70
2022/11/04 12:59:35;;;;;;;3.27;2.00;;;;;;;;;;4989379;28;20471;-69
2022/11/04 13:02:30;;;;;;;2.87;2.10;;;;;;;;;;4990977;28;20461;-72
2022/11/04 13:05:26;;;;;;;3.00;1.83;;;;;;;;;;4983410;28;20470;-69
2022/11/04 13:08:03;;;;;;;3.27;1.93;;;;;;;;;;4978059;28;20535;-69
2022/11/04 13:10:51;;;;;;;2.53;1.67;;;;;;;;;;4974650;28;21137;-69
2022/11/04 13:13:32;;;;;;;3.47;1.90;;;;;;;;;;4980826;28;20549;-69
2022/11/04 13:16:02;;;;;;;6.37;2.67;;;;;;;;;;4993841;28;20530;-69
2022/11/04 13:18:50;;;;;;;3.80;1.57;;;;;;;;;;4975784;28;20885;-69
2022/11/04 13:21:20;;;;;;;4.00;1.70;;;;;;;;;;4975057;28;20449;-69
2022/11/04 13:23:51;;;;;;;2.00;1.30;;;;;;;;;;4975756;28;20815;-70
2022/11/04 13:26:21;;;;;;;3.40;1.73;;;;;;;;;;4975071;28;20877;-69
2022/11/04 13:28:54;;;;;;;2.87;1.40;;;;;;;;;;4979428;28;21018;-69
2022/11/04 13:31:28;;;;;;;4.23;1.80;;;;;;;;;;4992397;28;20510;-69
2022/11/04 13:34:09;;;;;;;4.37;2.10;;;;;;;;;;4992609;28;20836;-70
2022/11/04 13:36:41;;;;;;;4.47;2.10;;;;;;;;;;4983791;28;20464;-70
2022/11/04 13:39:11;;;;;;;3.27;1.90;;;;;;;;;;4976626;28;20552;-70
2022/11/04 13:41:41;;;;;;;3.20;1.73;;;;;;;;;;4975174;28;20512;-70
2022/11/04 13:44:18;;;;;;;6.23;3.80;;;;;;;;;;4990749;28;20613;-70
2022/11/04 13:46:52;;;;;;;6.60;2.23;;;;;;;;;;4995979;28;20880;-69
2022/11/04 13:49:29;;;;;;;3.77;1.53;;;;;;;;;;4978524;28;20936;-71
2022/11/04 13:52:06;;;;;;;2.30;1.43;;;;;;;;;;4975452;28;20983;-70
2022/11/04 13:54:35;;;;;;;5.40;2.53;;;;;;;;;;4975869;28;20478;-70
2022/11/04 14:00:21;;;;;;;2.77;1.40;;;;;;;;;;4975453;28;20472;-70
2022/11/04 14:03:00;;;;;;;3.57;2.00;;;;;;;;;;4972430;28;20908;-71
2022/11/04 14:05:57;;;;;;;3.73;1.87;;;;;;;;;;4974936;28;20464;-71
2022/11/04 14:08:26;;;;;;;2.26;1.64;;;;;;;;;;4973811;28;1333733;-72
2022/11/04 14:11:12;;;;;;;2.37;1.57;;;;;;;;;;4960845;28;20222;-69
2022/11/04 14:14:11;;;;;;;3.77;2.17;;;;;;;;;;4975780;28;20535;-70
2022/11/04 14:16:45;;;;;;;3.03;1.80;;;;;;;;;;4959651;29;20972;-70
2022/11/04 14:19:33;;;;;;;2.97;1.87;;;;;;;;;;4965045;28;20489;-70
2022/11/04 14:22:15;;;;;;;3.17;2.30;;;;;;;;;;4975059;28;20449;-70
2022/11/04 14:24:44;;;;;;;3.07;2.10;;;;;;;;;;4977997;28;20460;-70
2022/11/04 14:27:25;;;;;;;4.17;2.20;;;;;;;;;;4969972;28;20462;-71
2022/11/04 14:29:56;;;;;;;2.70;1.80;;;;;;;;;;4960188;28;20476;-71
2022/11/04 14:32:30;;;;;;;6.20;2.47;;;;;;;;;;4959097;29;20809;-71
2022/11/04 14:35:05;;;;;;;4.13;2.30;;;;;;;;;;4964525;28;20464;-68
2022/11/04 14:37:43;;;;;;;2.40;1.73;;;;;;;;;;4960902;28;21038;-71
2022/11/04 14:40:25;;;;;;;6.97;3.20;;;;;;;;;;4959458;28;20552;-70
2022/11/04 14:43:09;;;;;;;3.93;2.80;;;;;;;;;;4969638;28;20445;-70
2022/11/04 14:46:04;;;;;;;7.10;2.57;;;;;;;;;;4964861;28;20455;-69
2022/11/04 14:48:42;;;;;;;5.27;2.27;;;;;;;;;;4966300;28;20460;-70
2022/11/04 14:51:31;;;;;;;5.10;2.30;;;;;;;;;;4960192;28;20744;-70
2022/11/04 14:54:05;;;;;;;5.77;1.90;;;;;;;;;;4962376;28;20475;-70
2022/11/04 14:56:33;;;;;;;4.77;2.20;;;;;;;;;;4966818;28;20458;-70
2022/11/04 14:59:01;;;;;;;3.87;2.33;;;;;;;;;;4965886;28;20880;-70
2022/11/04 15:01:30;;;;;;;4.57;1.90;;;;;;;;;;4959301;28;20501;-70
2022/11/04 15:04:08;;;;;;;2.10;1.57;;;;;;;;;;4961133;28;20766;-70
2022/11/04 15:06:49;;;;;;;3.30;2.10;;;;;;;;;;4965089;28;20468;-70
2022/11/04 15:09:34;;;;;;;2.70;2.00;;;;;;;;;;4966344;28;20516;-70
2022/11/04 15:15:20;;;;;;;3.03;1.97;;;;;;;;;;4919759;29;20938;-69
2022/11/04 15:18:20;;;;;;;4.67;2.10;;;;;;;;;;4928028;29;20463;-69
2022/11/04 15:21:14;;;;;;;2.80;1.97;;;;;;;;;;4961687;28;20517;-70
2022/11/04 15:24:18;;;;;;;;;;;;;;;;;;;;;
2022/11/04 15:27:05;;;;;;;3.67;2.13;;;;;;;;;;4960993;28;20552;-69
2022/11/04 15:29:46;;;;;;;6.13;3.70;;;;;;;;;;4961969;28;20469;-69
2022/11/04 15:32:17;;;;;;;3.80;2.60;;;;;;;;;;4961810;28;20493;-69
2022/11/04 15:34:55;;;;;;;5.23;2.87;;;;;;;;;;4963520;28;20473;-70
2022/11/04 15:37:24;;;;;;;3.23;2.20;;;;;;;;;;4959246;28;21051;-69
2022/11/04 15:40:01;;;;;;;3.30;2.33;;;;;;;;;;4955657;28;20453;-70
2022/11/04 15:42:42;;;;;;;7.03;2.90;;;;;;;;;;4957046;28;20529;-70
2022/11/04 15:48:36;;;;;;;5.53;3.30;;;;;;;;;;4944021;28;20455;-69
2022/11/04 15:51:22;;;;;;;5.10;2.57;;;;;;;;;;4960721;28;20486;-70
2022/11/04 15:53:57;;;;;;;7.77;3.27;;;;;;;;;;4962329;28;20462;-71
2022/11/04 15:56:37;;;;;;;4.50;2.47;;;;;;;;;;4966733;28;20805;-70
2022/11/04 15:59:09;;;;;;;4.13;2.43;;;;;;;;;;4961004;28;20523;-70
2022/11/04 16:01:44;;;;;;;5.83;3.00;;;;;;;;;;4962896;28;20774;-70